N29EG KSAN-KSNA
Flight info
| Callsign | N29EG |
|---|---|
| Flight time | 0h 42m |
| Altitude | 11000 |
| Route | ECHHO2 SLI EMMLN2 |
| Aircraft | BE9L/L-VGDW/C |
Departure
| Time | 2026-04-24 16:15 |
|---|---|
| Airport | San Diego International Airport (KSAN) |
Arrival
| Time | 2026-04-24 16:58 |
|---|---|
| Airport | John Wayne Orange County International Airport (KSNA) |
| Time | Latitude | Longitude | Altitude | Speed | Heading |
|---|---|---|---|---|---|
| 2026-04-24 16:03 | 32.73427 | -117.18525 | 20 ft | 0 kts | 196° |
| 2026-04-24 16:11 | 32.73333 | -117.18398 | 20 ft | 20 kts | 106° |
| 2026-04-24 16:11 | 32.73288 | -117.18213 | 20 ft | 25 kts | 106° |
| 2026-04-24 16:11 | 32.73237 | -117.18000 | 20 ft | 28 kts | 106° |
| 2026-04-24 16:12 | 32.73224 | -117.17946 | 20 ft | 0 kts | 107° |
| 2026-04-24 16:12 | 32.73209 | -117.17892 | 20 ft | 12 kts | 106° |
| 2026-04-24 16:12 | 32.73116 | -117.17585 | 20 ft | 25 kts | 117° |
| 2026-04-24 16:13 | 32.73095 | -117.17551 | 20 ft | 0 kts | 138° |
| 2026-04-24 16:14 | 32.73019 | -117.17577 | 20 ft | 0 kts | 284° |
| 2026-04-24 16:14 | 32.73024 | -117.17602 | 20 ft | 24 kts | 285° |
| 2026-04-24 16:14 | 32.73391 | -117.19164 | 195 ft | 135 kts | 287° |
| 2026-04-24 16:15 | 32.73570 | -117.19895 | 369 ft | 146 kts | 286° |
| 2026-04-24 16:15 | 32.74916 | -117.22575 | 948 ft | 180 kts | 306° |
| 2026-04-24 16:16 | 32.76408 | -117.25133 | 1458 ft | 194 kts | 306° |
| 2026-04-24 16:16 | 32.77179 | -117.26464 | 1710 ft | 197 kts | 305° |
| 2026-04-24 16:17 | 32.79544 | -117.30555 | 2465 ft | 202 kts | 305° |
| 2026-04-24 16:17 | 32.81137 | -117.33314 | 2968 ft | 203 kts | 303° |
| 2026-04-24 16:18 | 32.82725 | -117.36068 | 3467 ft | 204 kts | 304° |
| 2026-04-24 16:18 | 32.84331 | -117.38852 | 3972 ft | 204 kts | 305° |
| 2026-04-24 16:18 | 32.85135 | -117.40247 | 4224 ft | 204 kts | 305° |
| 2026-04-24 16:19 | 32.86725 | -117.43008 | 4724 ft | 203 kts | 305° |
| 2026-04-24 16:19 | 32.87532 | -117.44409 | 4979 ft | 203 kts | 306° |
| 2026-04-24 16:20 | 32.89487 | -117.46719 | 5481 ft | 200 kts | 331° |
| 2026-04-24 16:20 | 32.91879 | -117.48405 | 5988 ft | 198 kts | 333° |
| 2026-04-24 16:20 | 32.93067 | -117.49241 | 6241 ft | 198 kts | 333° |
| 2026-04-24 16:21 | 32.95437 | -117.50909 | 6747 ft | 196 kts | 333° |
| 2026-04-24 16:21 | 32.96608 | -117.51741 | 6999 ft | 196 kts | 331° |
| 2026-04-24 16:21 | 32.97745 | -117.52622 | 7250 ft | 196 kts | 334° |
| 2026-04-24 16:22 | 32.98692 | -117.53793 | 7500 ft | 199 kts | 310° |
| 2026-04-24 16:22 | 33.00415 | -117.56433 | 7874 ft | 205 kts | 310° |
| 2026-04-24 16:22 | 33.01300 | -117.57780 | 7963 ft | 212 kts | 310° |
| 2026-04-24 16:23 | 33.02222 | -117.59180 | 7976 ft | 219 kts | 310° |
| 2026-04-24 16:23 | 33.03177 | -117.60630 | 7976 ft | 224 kts | 310° |
| 2026-04-24 16:23 | 33.04155 | -117.62115 | 7976 ft | 228 kts | 310° |
| 2026-04-24 16:24 | 33.06110 | -117.65086 | 7974 ft | 224 kts | 310° |
| 2026-04-24 16:24 | 33.07066 | -117.66537 | 7971 ft | 223 kts | 310° |
| 2026-04-24 16:24 | 33.08032 | -117.68005 | 7971 ft | 223 kts | 310° |
| 2026-04-24 16:24 | 33.08994 | -117.69468 | 7971 ft | 223 kts | 310° |
| 2026-04-24 16:25 | 33.09951 | -117.70937 | 7971 ft | 222 kts | 310° |
| 2026-04-24 16:25 | 33.10877 | -117.72359 | 7983 ft | 221 kts | 310° |
| 2026-04-24 16:25 | 33.11823 | -117.73811 | 7987 ft | 219 kts | 310° |
| 2026-04-24 16:26 | 33.13694 | -117.76688 | 7990 ft | 215 kts | 311° |
| 2026-04-24 16:26 | 33.14613 | -117.78102 | 7991 ft | 213 kts | 311° |
| 2026-04-24 16:26 | 33.16433 | -117.80895 | 7991 ft | 212 kts | 309° |
| 2026-04-24 16:27 | 33.17342 | -117.82297 | 7992 ft | 213 kts | 309° |
| 2026-04-24 16:27 | 33.18346 | -117.83569 | 7984 ft | 210 kts | 333° |
| 2026-04-24 16:27 | 33.19709 | -117.84148 | 7995 ft | 207 kts | 346° |
| 2026-04-24 16:27 | 33.21085 | -117.84654 | 7994 ft | 208 kts | 346° |
| 2026-04-24 16:28 | 33.22492 | -117.85165 | 7995 ft | 209 kts | 346° |
| 2026-04-24 16:28 | 33.23873 | -117.85665 | 7996 ft | 210 kts | 346° |
| 2026-04-24 16:28 | 33.26691 | -117.86684 | 7998 ft | 212 kts | 345° |
| 2026-04-24 16:29 | 33.28106 | -117.87196 | 7999 ft | 213 kts | 344° |
| 2026-04-24 16:29 | 33.29207 | -117.87594 | 7999 ft | 213 kts | 344° |
| 2026-04-24 16:29 | 33.32059 | -117.88628 | 8000 ft | 214 kts | 344° |
| 2026-04-24 16:30 | 33.34908 | -117.89661 | 8000 ft | 214 kts | 344° |
| 2026-04-24 16:30 | 33.36326 | -117.90174 | 8000 ft | 215 kts | 344° |
| 2026-04-24 16:30 | 33.37764 | -117.90695 | 8000 ft | 215 kts | 344° |
| 2026-04-24 16:31 | 33.39188 | -117.91212 | 8000 ft | 215 kts | 345° |
| 2026-04-24 16:31 | 33.40610 | -117.91727 | 7881 ft | 213 kts | 345° |
| 2026-04-24 16:31 | 33.42017 | -117.92238 | 7685 ft | 213 kts | 345° |
| 2026-04-24 16:31 | 33.43429 | -117.92750 | 7506 ft | 213 kts | 345° |
| 2026-04-24 16:32 | 33.44853 | -117.93268 | 7330 ft | 212 kts | 345° |
| 2026-04-24 16:32 | 33.46253 | -117.93776 | 7158 ft | 211 kts | 345° |
| 2026-04-24 16:32 | 33.47659 | -117.94287 | 6987 ft | 210 kts | 344° |
| 2026-04-24 16:32 | 33.49050 | -117.94792 | 6743 ft | 209 kts | 344° |
| 2026-04-24 16:33 | 33.50439 | -117.95297 | 6508 ft | 209 kts | 344° |
| 2026-04-24 16:33 | 33.51822 | -117.95801 | 6278 ft | 208 kts | 344° |
| 2026-04-24 16:33 | 33.53194 | -117.96300 | 6060 ft | 206 kts | 344° |
| 2026-04-24 16:33 | 33.54533 | -117.96788 | 5995 ft | 198 kts | 344° |
| 2026-04-24 16:34 | 33.55862 | -117.97272 | 5989 ft | 201 kts | 344° |
| 2026-04-24 16:34 | 33.57216 | -117.97765 | 5987 ft | 208 kts | 344° |
| 2026-04-24 16:34 | 33.58622 | -117.98277 | 5983 ft | 213 kts | 344° |
| 2026-04-24 16:34 | 33.60046 | -117.98795 | 5980 ft | 216 kts | 344° |
| 2026-04-24 16:35 | 33.61506 | -117.99328 | 5978 ft | 218 kts | 344° |
| 2026-04-24 16:35 | 33.62967 | -117.99861 | 5977 ft | 219 kts | 344° |
| 2026-04-24 16:35 | 33.64426 | -118.00393 | 5976 ft | 220 kts | 344° |
| 2026-04-24 16:35 | 33.65890 | -118.00927 | 5974 ft | 218 kts | 344° |
| 2026-04-24 16:36 | 33.67321 | -118.01450 | 5972 ft | 212 kts | 344° |
| 2026-04-24 16:36 | 33.68726 | -118.01963 | 5972 ft | 208 kts | 344° |
| 2026-04-24 16:36 | 33.70113 | -118.02470 | 5971 ft | 205 kts | 344° |
| 2026-04-24 16:36 | 33.71466 | -118.02965 | 5971 ft | 204 kts | 344° |
| 2026-04-24 16:37 | 33.72810 | -118.03456 | 5970 ft | 202 kts | 344° |
| 2026-04-24 16:37 | 33.74169 | -118.03953 | 5971 ft | 204 kts | 344° |
| 2026-04-24 16:37 | 33.75518 | -118.04446 | 5970 ft | 205 kts | 344° |
| 2026-04-24 16:37 | 33.76889 | -118.04902 | 5961 ft | 205 kts | 356° |
| 2026-04-24 16:38 | 33.78201 | -118.04446 | 5967 ft | 194 kts | 42° |
| 2026-04-24 16:38 | 33.78872 | -118.03127 | 5718 ft | 186 kts | 85° |
| 2026-04-24 16:38 | 33.78564 | -118.01693 | 5513 ft | 179 kts | 129° |
| 2026-04-24 16:38 | 33.77497 | -118.01006 | 5314 ft | 180 kts | 174° |
| 2026-04-24 16:39 | 33.76331 | -118.01483 | 5124 ft | 186 kts | 218° |
| 2026-04-24 16:39 | 33.75759 | -118.02879 | 4939 ft | 195 kts | 262° |
| 2026-04-24 16:39 | 33.76143 | -118.04418 | 4760 ft | 200 kts | 306° |
| 2026-04-24 16:39 | 33.77321 | -118.05278 | 4583 ft | 200 kts | 351° |
| 2026-04-24 16:40 | 33.78619 | -118.04980 | 4412 ft | 193 kts | 35° |
| 2026-04-24 16:40 | 33.79374 | -118.03732 | 4238 ft | 185 kts | 80° |
| 2026-04-24 16:40 | 33.79166 | -118.02268 | 4061 ft | 178 kts | 125° |
| 2026-04-24 16:40 | 33.78588 | -118.00976 | 3937 ft | 178 kts | 98° |
| 2026-04-24 16:41 | 33.78928 | -117.99554 | 3957 ft | 187 kts | 56° |
| 2026-04-24 16:41 | 33.79987 | -117.98574 | 3967 ft | 192 kts | 37° |
| 2026-04-24 16:41 | 33.80969 | -117.97530 | 3961 ft | 190 kts | 61° |
| 2026-04-24 16:41 | 33.81399 | -117.96040 | 3960 ft | 190 kts | 67° |
| 2026-04-24 16:42 | 33.82182 | -117.94758 | 3972 ft | 191 kts | 62° |
| 2026-04-24 16:42 | 33.82852 | -117.93379 | 3973 ft | 191 kts | 65° |
| 2026-04-24 16:42 | 33.83469 | -117.91973 | 3973 ft | 191 kts | 66° |
| 2026-04-24 16:42 | 33.84075 | -117.90538 | 3974 ft | 191 kts | 66° |
| 2026-04-24 16:43 | 33.84674 | -117.89103 | 3976 ft | 191 kts | 66° |
| 2026-04-24 16:43 | 33.85269 | -117.87669 | 3976 ft | 191 kts | 66° |
| 2026-04-24 16:43 | 33.85860 | -117.86243 | 3977 ft | 191 kts | 66° |
| 2026-04-24 16:43 | 33.86455 | -117.84809 | 3978 ft | 191 kts | 66° |
| 2026-04-24 16:44 | 33.87050 | -117.83373 | 3978 ft | 191 kts | 66° |
| 2026-04-24 16:44 | 33.87642 | -117.81942 | 3979 ft | 191 kts | 66° |
| 2026-04-24 16:44 | 33.88240 | -117.80496 | 3979 ft | 191 kts | 66° |
| 2026-04-24 16:44 | 33.88829 | -117.79073 | 3980 ft | 191 kts | 66° |
| 2026-04-24 16:45 | 33.89418 | -117.77648 | 3981 ft | 190 kts | 66° |
| 2026-04-24 16:45 | 33.90005 | -117.76229 | 3981 ft | 189 kts | 66° |
| 2026-04-24 16:45 | 33.90595 | -117.74802 | 3982 ft | 188 kts | 65° |
| 2026-04-24 16:45 | 33.91172 | -117.73402 | 3982 ft | 188 kts | 64° |
| 2026-04-24 16:46 | 33.91757 | -117.71986 | 3983 ft | 187 kts | 64° |
| 2026-04-24 16:46 | 33.92469 | -117.70715 | 3974 ft | 188 kts | 38° |
| 2026-04-24 16:46 | 33.93628 | -117.69952 | 3985 ft | 188 kts | 29° |
| 2026-04-24 16:46 | 33.94768 | -117.69232 | 3985 ft | 187 kts | 29° |
| 2026-04-24 16:47 | 33.95936 | -117.68493 | 3985 ft | 187 kts | 29° |
| 2026-04-24 16:47 | 33.97087 | -117.67760 | 3986 ft | 187 kts | 27° |
| 2026-04-24 16:47 | 33.98224 | -117.67040 | 3986 ft | 186 kts | 27° |
| 2026-04-24 16:47 | 33.99367 | -117.66316 | 3986 ft | 186 kts | 27° |
| 2026-04-24 16:48 | 34.00600 | -117.65938 | 3980 ft | 187 kts | 353° |
| 2026-04-24 16:48 | 34.01707 | -117.66727 | 3981 ft | 191 kts | 309° |
| 2026-04-24 16:48 | 34.02050 | -117.68260 | 3981 ft | 196 kts | 265° |
| 2026-04-24 16:48 | 34.01426 | -117.69681 | 3981 ft | 199 kts | 221° |
| 2026-04-24 16:49 | 34.00162 | -117.70257 | 3989 ft | 198 kts | 184° |
| 2026-04-24 16:49 | 33.98786 | -117.70441 | 3986 ft | 199 kts | 185° |
| 2026-04-24 16:49 | 33.97424 | -117.70620 | 3985 ft | 199 kts | 185° |
| 2026-04-24 16:49 | 33.96042 | -117.70802 | 3985 ft | 199 kts | 185° |
| 2026-04-24 16:50 | 33.95119 | -117.70923 | 3985 ft | 199 kts | 185° |
| 2026-04-24 16:50 | 33.94271 | -117.71034 | 3980 ft | 198 kts | 185° |
| 2026-04-24 16:50 | 33.93070 | -117.71191 | 3894 ft | 198 kts | 185° |
| 2026-04-24 16:50 | 33.91718 | -117.71388 | 3730 ft | 197 kts | 192° |
| 2026-04-24 16:51 | 33.90523 | -117.72187 | 3492 ft | 197 kts | 211° |
| 2026-04-24 16:51 | 33.89347 | -117.73005 | 3410 ft | 192 kts | 209° |
| 2026-04-24 16:51 | 33.88194 | -117.73763 | 3398 ft | 186 kts | 208° |
| 2026-04-24 16:51 | 33.87071 | -117.74487 | 3397 ft | 181 kts | 208° |
| 2026-04-24 16:52 | 33.85959 | -117.75198 | 3397 ft | 178 kts | 209° |
| 2026-04-24 16:52 | 33.84872 | -117.75892 | 3397 ft | 175 kts | 209° |
| 2026-04-24 16:52 | 33.83809 | -117.76575 | 3311 ft | 174 kts | 210° |
| 2026-04-24 16:52 | 33.82764 | -117.77241 | 3186 ft | 163 kts | 209° |
| 2026-04-24 16:53 | 33.81779 | -117.77864 | 2900 ft | 161 kts | 209° |
| 2026-04-24 16:53 | 33.80827 | -117.78473 | 2791 ft | 148 kts | 209° |
| 2026-04-24 16:53 | 33.79909 | -117.79050 | 2537 ft | 154 kts | 208° |
| 2026-04-24 16:53 | 33.78936 | -117.79670 | 2264 ft | 160 kts | 208° |
| 2026-04-24 16:54 | 33.77966 | -117.80284 | 2187 ft | 153 kts | 208° |
| 2026-04-24 16:54 | 33.77059 | -117.80861 | 2006 ft | 141 kts | 207° |
| 2026-04-24 16:54 | 33.76239 | -117.81382 | 1840 ft | 129 kts | 207° |
| 2026-04-24 16:54 | 33.75463 | -117.81876 | 1679 ft | 122 kts | 207° |
| 2026-04-24 16:55 | 33.74734 | -117.82339 | 1527 ft | 117 kts | 207° |
| 2026-04-24 16:55 | 33.74020 | -117.82791 | 1375 ft | 114 kts | 206° |
| 2026-04-24 16:55 | 33.73317 | -117.83237 | 1228 ft | 112 kts | 206° |
| 2026-04-24 16:55 | 33.72711 | -117.83622 | 1094 ft | 111 kts | 206° |
| 2026-04-24 16:56 | 33.72374 | -117.83836 | 1020 ft | 111 kts | 206° |
| 2026-04-24 16:56 | 33.71695 | -117.84267 | 872 ft | 110 kts | 206° |
| 2026-04-24 16:56 | 33.71024 | -117.84693 | 731 ft | 106 kts | 207° |
| 2026-04-24 16:56 | 33.70381 | -117.85101 | 588 ft | 106 kts | 207° |
| 2026-04-24 16:57 | 33.69720 | -117.85519 | 441 ft | 107 kts | 207° |
| 2026-04-24 16:57 | 33.69083 | -117.85924 | 301 ft | 103 kts | 207° |
| 2026-04-24 16:57 | 33.68455 | -117.86327 | 156 ft | 101 kts | 207° |
| 2026-04-24 16:57 | 33.67856 | -117.86710 | 59 ft | 88 kts | 208° |
| 2026-04-24 16:58 | 33.67431 | -117.86989 | 59 ft | 38 kts | 226° |
| 2026-04-24 16:58 | 33.67342 | -117.87180 | 59 ft | 29 kts | 207° |
| 2026-04-24 16:58 | 33.67341 | -117.87294 | 59 ft | 15 kts | 12° |
| 2026-04-24 16:58 | 33.67451 | -117.87212 | 59 ft | 20 kts | 26° |
| 2026-04-24 16:59 | 33.67498 | -117.87172 | 59 ft | 0 kts | 31° |